This is the latest recevied weather packets stored in our database for station/object TA1FM. If no packets are shown the sender has not sent any weather packets the latest 10 day(s).
| Time | Temp. | Humidity | Pressure | Rain* | Wind** | Luminosity | Snow |
|---|---|---|---|---|---|---|---|
| 1777992458 | 12.78° C | 42% | 911.7 hPa | - | - | - | - |
| 1777991557 | 13.33° C | 42% | 911.7 hPa | - | - | - | - |
| 1777990657 | 13.33° C | 43% | 911.7 hPa | - | - | - | - |
| 1777989757 | 13.33° C | 41% | 911.7 hPa | - | - | - | - |
| 1777988857 | 13.89° C | 41% | 911.7 hPa | - | - | - | - |
| 1777987957 | 13.89° C | 42% | 912.6 hPa | - | - | - | - |
| 1777987057 | 14.44° C | 41% | 911.9 hPa | - | - | - | - |
| 1777986157 | 14.44° C | 41% | 911.9 hPa | - | - | - | - |
| 1777984356 | 15° C | 41% | 912 hPa | - | - | - | - |
| 1777983456 | 12.22° C | 42% | 907.8 hPa | - | - | - | - |
| 1777982556 | 15° C | 44% | 912.1 hPa | - | - | - | - |
| 1777981656 | 8.89° C | 44% | 903.5 hPa | - | - | - | - |
| 1777980756 | 15° C | 43% | 912.1 hPa | - | - | - | - |
| 1777979858 | 6.67° C | 44% | 900.3 hPa | - | - | - | - |
| 1777978961 | 14.44° C | 44% | 911.9 hPa | - | - | - | - |
| 1777977153 | 13.89° C | 45% | 911.9 hPa | - | - | - | - |
| 1777976253 | 13.89° C | 45% | 913 hPa | - | - | - | - |
| 1777975353 | 13.89° C | 46% | 912.3 hPa | - | - | - | - |
| 1777974453 | 5.56° C | 46% | 901.1 hPa | - | - | - | - |
| 1777973553 | 12.78° C | 46% | 912 hPa | - | - | - | - |
| 1777972652 | 12.78° C | 47% | 912 hPa | - | - | - | - |
| 1777971752 | 12.78° C | 47% | 912.1 hPa | - | - | - | - |
| 1777970852 | 12.22° C | 49% | 912.1 hPa | - | - | - | - |
| 1777969952 | 11.67° C | 50% | 912 hPa | - | - | - | - |
| 1777969052 | 11.67° C | 52% | 912.1 hPa | - | - | - | - |
* Rain since midnight (hover to see other rain measurements)
** Current wind speed in m/s (hover to see current wind gust speed)